createdAt,value
2022-12-28T00:01:50.374Z,8.45
2022-12-28T00:04:18.140Z,8.20
2022-12-28T00:06:47.493Z,7.90
2022-12-28T00:09:15.131Z,8.38
2022-12-28T00:11:43.007Z,8.40
2022-12-28T00:14:10.851Z,7.95
2022-12-28T00:16:41.375Z,7.40
2022-12-28T00:19:15.852Z,7.30
2022-12-28T00:21:45.158Z,8.20
2022-12-28T00:24:25.024Z,7.30
2022-12-28T00:26:53.027Z,7.00
2022-12-28T00:29:20.829Z,7.30
2022-12-28T00:31:48.619Z,8.23
2022-12-28T00:34:16.291Z,7.30
2022-12-28T00:37:10.213Z,7.20
2022-12-28T00:39:31.781Z,6.80
2022-12-28T00:42:00.144Z,7.22
2022-12-28T00:44:27.868Z,7.32
2022-12-28T00:46:55.657Z,7.07
2022-12-28T00:49:23.400Z,7.53
2022-12-28T00:51:51.093Z,7.03
2022-12-28T00:54:18.724Z,6.45
2022-12-28T00:56:47.656Z,7.03
2022-12-28T00:59:15.666Z,6.72
2022-12-28T01:01:43.663Z,6.53
2022-12-28T01:04:11.634Z,6.55
2022-12-28T01:06:39.982Z,6.95
2022-12-28T01:09:08.018Z,6.68
2022-12-28T01:11:35.631Z,6.53
2022-12-28T01:14:03.785Z,7.50
2022-12-28T01:16:35.527Z,6.38
2022-12-28T01:19:06.895Z,6.80
2022-12-28T01:21:36.326Z,6.72
2022-12-28T01:24:07.933Z,6.75
2022-12-28T01:26:36.299Z,6.25
2022-12-28T01:29:04.328Z,6.65
2022-12-28T01:31:33.662Z,7.20
2022-12-28T01:34:02.262Z,6.82
2022-12-28T01:36:33.167Z,6.18
2022-12-28T01:39:04.765Z,6.50
2022-12-28T01:41:37.122Z,5.88
2022-12-28T01:44:05.150Z,6.07
2022-12-28T01:46:44.965Z,5.90
2022-12-28T01:49:37.686Z,5.65
2022-12-28T01:52:37.069Z,5.55
2022-12-28T01:55:25.437Z,4.97
2022-12-28T01:58:03.706Z,5.60
2022-12-28T02:00:31.914Z,5.68
2022-12-28T02:03:05.525Z,5.22
2022-12-28T02:05:38.491Z,5.80
2022-12-28T02:08:24.156Z,5.00
2022-12-28T02:10:53.392Z,5.15
2022-12-28T02:13:23.138Z,5.47
2022-12-28T02:15:51.305Z,4.55
2022-12-28T02:18:21.106Z,4.93
2022-12-28T02:21:17.598Z,5.45
2022-12-28T02:24:09.478Z,5.85
2022-12-28T02:27:03.291Z,5.63
2022-12-28T02:29:40.844Z,5.28
2022-12-28T02:32:18.586Z,4.82
2022-12-28T02:35:02.939Z,5.40
2022-12-28T02:37:51.694Z,6.00
2022-12-28T02:40:26.994Z,4.95
2022-12-28T02:42:55.538Z,6.15
2022-12-28T02:46:00.635Z,5.50
2022-12-28T02:48:47.485Z,4.68
2022-12-28T02:51:33.145Z,5.70
2022-12-28T02:54:39.238Z,6.03
2022-12-28T02:58:08.891Z,5.38
2022-12-28T03:01:17.883Z,4.88
2022-12-28T03:04:26.003Z,4.72
2022-12-28T03:07:35.920Z,5.00
2022-12-28T03:10:13.266Z,4.38
2022-12-28T03:12:51.713Z,4.53
2022-12-28T03:15:30.263Z,4.55
2022-12-28T03:18:47.385Z,4.25
2022-12-28T03:21:34.614Z,4.50
2022-12-28T03:24:23.143Z,4.40
2022-12-28T03:27:10.977Z,4.43
2022-12-28T03:30:19.317Z,4.05
2022-12-28T03:32:48.543Z,4.35
2022-12-28T03:35:18.527Z,4.45
2022-12-28T03:38:04.091Z,4.22
2022-12-28T03:40:50.385Z,3.50
2022-12-28T03:43:43.449Z,3.60
2022-12-28T03:46:22.223Z,3.60
2022-12-28T03:48:51.993Z,3.58
2022-12-28T03:51:24.090Z,3.45
2022-12-28T03:53:52.844Z,3.65
2022-12-28T03:56:26.717Z,3.40
2022-12-28T03:58:57.938Z,2.88
2022-12-28T04:01:33.219Z,3.60
2022-12-28T04:04:01.015Z,3.20
2022-12-28T04:06:28.682Z,3.78
2022-12-28T04:08:57.634Z,2.97
2022-12-28T04:11:28.617Z,3.30
2022-12-28T04:13:57.903Z,3.67
2022-12-28T04:16:28.327Z,3.05
2022-12-28T04:18:56.121Z,3.20
2022-12-28T04:21:24.293Z,2.60
2022-12-28T04:23:52.153Z,3.10
2022-12-28T04:26:23.235Z,3.17
2022-12-28T04:28:53.670Z,2.80
2022-12-28T04:31:36.607Z,3.15
2022-12-28T04:34:11.195Z,2.65
2022-12-28T04:36:43.142Z,2.83
2022-12-28T04:39:14.989Z,2.63
2022-12-28T04:41:42.771Z,2.72
2022-12-28T04:44:10.409Z,2.42
2022-12-28T04:46:38.135Z,2.45
2022-12-28T04:49:05.861Z,2.45
2022-12-28T04:51:35.246Z,2.20
2022-12-28T04:54:03.052Z,2.50
2022-12-28T04:56:30.918Z,1.75
2022-12-28T04:59:00.994Z,2.40
2022-12-28T05:01:28.852Z,2.33
2022-12-28T05:03:59.914Z,2.22
2022-12-28T05:06:28.208Z,2.35
2022-12-28T05:08:57.640Z,2.20
2022-12-28T05:11:29.673Z,2.63
2022-12-28T05:13:57.803Z,2.20
2022-12-28T05:16:27.953Z,2.25
2022-12-28T05:18:57.628Z,2.10
2022-12-28T05:21:28.159Z,1.90
2022-12-28T05:23:57.360Z,2.38
2022-12-28T05:26:29.938Z,1.83
2022-12-28T05:28:58.948Z,2.40
2022-12-28T05:31:27.306Z,2.33
2022-12-28T05:33:55.549Z,2.08
2022-12-28T05:36:26.508Z,2.50
2022-12-28T05:38:55.669Z,2.28
2022-12-28T05:41:26.536Z,2.47
2022-12-28T05:43:56.273Z,2.10
2022-12-28T05:46:31.944Z,2.42
2022-12-28T05:49:00.518Z,2.50
2022-12-28T05:51:31.494Z,2.35
2022-12-28T05:54:01.479Z,3.10
2022-12-28T05:56:30.822Z,2.33
2022-12-28T05:59:07.365Z,2.40
2022-12-28T06:01:39.231Z,2.30
2022-12-28T06:04:14.642Z,3.00
2022-12-28T06:06:42.730Z,2.90
2022-12-28T06:09:10.479Z,2.45
2022-12-28T06:11:39.299Z,2.65
2022-12-28T06:14:07.242Z,2.72
2022-12-28T06:16:42.395Z,2.50
2022-12-28T06:19:14.701Z,2.70
2022-12-28T06:21:42.974Z,3.30
2022-12-28T06:24:11.729Z,2.67
2022-12-28T06:26:40.854Z,2.42
2022-12-28T06:29:08.708Z,3.33
2022-12-28T06:31:40.036Z,2.92
2022-12-28T06:34:09.353Z,2.40
2022-12-28T06:36:43.313Z,2.53
2022-12-28T06:39:14.745Z,2.70
2022-12-28T06:41:43.380Z,2.63
2022-12-28T06:44:13.703Z,2.13
2022-12-28T06:46:41.719Z,2.58
2022-12-28T06:49:09.653Z,2.60
2022-12-28T06:51:40.743Z,2.92
2022-12-28T06:54:10.131Z,2.45
2022-12-28T06:56:38.692Z,2.58
2022-12-28T06:59:07.112Z,2.50
2022-12-28T07:01:41.456Z,2.40
2022-12-28T07:04:10.753Z,2.45
2022-12-28T07:06:41.854Z,2.10
2022-12-28T07:09:15.793Z,2.00
2022-12-28T07:11:44.874Z,2.38
2022-12-28T07:14:12.933Z,2.28
2022-12-28T07:19:07.384Z,3.47
2022-12-28T07:21:38.074Z,2.95
2022-12-28T07:24:07.383Z,2.63
2022-12-28T07:26:37.761Z,3.03
2022-12-28T07:29:07.923Z,3.03
2022-12-28T07:31:44.923Z,3.40
2022-12-28T07:34:15.968Z,3.47
2022-12-28T07:36:43.982Z,3.22
2022-12-28T07:39:11.649Z,3.55
2022-12-28T07:41:39.357Z,3.15
2022-12-28T07:44:07.495Z,2.70
2022-12-28T07:46:37.332Z,2.83
2022-12-28T07:49:05.789Z,2.72
2022-12-28T07:51:37.662Z,2.70
2022-12-28T07:54:06.332Z,2.78
2022-12-28T07:59:06.311Z,2.95
2022-12-28T08:01:36.428Z,2.78
2022-12-28T08:04:07.708Z,1.77
2022-12-28T08:06:39.200Z,2.90
2022-12-28T08:09:11.939Z,2.00
2022-12-28T08:11:45.545Z,2.17
2022-12-28T08:14:13.232Z,2.10
2022-12-28T08:16:43.693Z,2.22
2022-12-28T08:19:13.665Z,2.53
2022-12-28T08:21:44.530Z,2.33
2022-12-28T08:24:19.600Z,2.17
2022-12-28T08:26:49.123Z,2.35
2022-12-28T08:29:21.349Z,2.10
2022-12-28T08:31:49.939Z,2.42
2022-12-28T08:34:26.455Z,2.58
2022-12-28T08:36:55.644Z,2.55
2022-12-28T08:39:23.348Z,2.22
2022-12-28T08:41:51.087Z,2.45
2022-12-28T08:44:18.712Z,2.22
2022-12-28T08:46:46.527Z,2.75
2022-12-28T08:49:14.371Z,2.17
2022-12-28T08:51:42.385Z,1.83
2022-12-28T08:54:12.479Z,2.20
2022-12-28T08:56:42.753Z,1.98
2022-12-28T08:59:17.486Z,2.10
2022-12-28T09:01:47.112Z,2.30
2022-12-28T09:04:18.446Z,2.28
2022-12-28T09:06:47.036Z,2.55
2022-12-28T09:09:16.769Z,2.50
2022-12-28T09:11:44.935Z,2.85
2022-12-28T09:14:22.806Z,2.63
2022-12-28T09:16:54.035Z,2.95
2022-12-28T09:19:22.451Z,4.05
2022-12-28T09:21:53.154Z,3.10
2022-12-28T09:24:22.511Z,3.25
2022-12-28T09:26:52.840Z,2.30
2022-12-28T09:29:21.004Z,2.92
2022-12-28T09:31:48.669Z,3.05
2022-12-28T09:34:35.608Z,3.58
2022-12-28T09:37:04.169Z,2.83
2022-12-28T09:39:31.912Z,2.60
2022-12-28T09:42:28.837Z,2.90
2022-12-28T09:45:11.236Z,2.50
2022-12-28T09:47:49.828Z,3.05
2022-12-28T09:50:25.277Z,2.72
2022-12-28T09:53:17.521Z,2.72
2022-12-28T09:56:26.926Z,3.13
2022-12-28T09:58:55.294Z,2.78
2022-12-28T10:01:24.816Z,2.95
2022-12-28T10:04:00.868Z,2.90
2022-12-28T10:06:35.405Z,2.20
2022-12-28T10:09:10.641Z,2.75
2022-12-28T10:11:43.866Z,10.48
2022-12-28T10:14:34.527Z,3.55
2022-12-28T10:17:05.408Z,7.63
2022-12-28T10:19:33.512Z,19.00
2022-12-28T10:22:13.691Z,9.32
2022-12-28T10:24:42.256Z,5.40
2022-12-28T10:27:21.700Z,3.60
2022-12-28T10:29:53.844Z,4.32
2022-12-28T10:32:21.767Z,5.18
2022-12-28T10:35:01.746Z,3.88
2022-12-28T10:37:36.178Z,4.20
2022-12-28T10:40:18.826Z,4.00
2022-12-28T10:42:55.420Z,3.53
2022-12-28T10:45:41.568Z,3.60
2022-12-28T10:48:23.109Z,3.88
2022-12-28T10:51:02.089Z,4.30
2022-12-28T10:53:40.910Z,4.53
2022-12-28T10:56:14.287Z,3.83
2022-12-28T10:58:48.161Z,3.97
2022-12-28T11:01:24.415Z,4.85
2022-12-28T11:04:24.767Z,3.78
2022-12-28T11:07:00.376Z,3.75
2022-12-28T11:09:35.353Z,4.60
2022-12-28T11:12:23.969Z,4.45
2022-12-28T11:14:52.760Z,3.92
2022-12-28T11:17:23.753Z,3.33
2022-12-28T11:20:04.175Z,3.03
2022-12-28T11:22:33.074Z,2.83
2022-12-28T11:25:02.127Z,3.17
2022-12-28T11:27:29.779Z,3.33
2022-12-28T11:29:58.255Z,2.90
2022-12-28T11:32:32.646Z,2.50
2022-12-28T11:35:00.853Z,2.95
2022-12-28T11:37:28.549Z,2.80
2022-12-28T11:39:56.432Z,3.85
2022-12-28T11:42:40.277Z,2.60
2022-12-28T11:45:52.172Z,2.47
2022-12-28T11:48:41.858Z,2.72
2022-12-28T11:51:33.481Z,2.85
2022-12-28T11:54:52.042Z,2.60
2022-12-28T11:57:36.794Z,2.63
2022-12-28T12:00:24.369Z,2.30
2022-12-28T12:02:58.127Z,2.45
2022-12-28T12:05:38.364Z,2.25
2022-12-28T12:08:11.957Z,2.20
2022-12-28T12:10:41.813Z,2.30
2022-12-28T12:13:44.362Z,2.63
2022-12-28T12:16:26.677Z,2.30
2022-12-28T12:18:57.687Z,2.17
2022-12-28T12:21:46.043Z,2.83
2022-12-28T12:24:47.869Z,2.08
2022-12-28T12:27:36.598Z,2.08
2022-12-28T12:30:21.479Z,3.10
2022-12-28T12:33:10.835Z,2.60
2022-12-28T12:36:01.314Z,1.85
2022-12-28T12:38:44.904Z,1.80
2022-12-28T12:41:30.632Z,2.30
2022-12-28T12:44:20.036Z,2.40
2022-12-28T12:47:15.290Z,2.05
2022-12-28T12:50:10.531Z,2.47
2022-12-28T12:53:12.182Z,2.40
2022-12-28T12:56:10.867Z,2.05
2022-12-28T12:59:12.027Z,2.30
2022-12-28T13:02:09.367Z,2.40
2022-12-28T13:04:41.396Z,2.45
2022-12-28T13:07:23.051Z,2.20
2022-12-28T13:09:54.781Z,2.10
2022-12-28T13:12:24.998Z,1.88
2022-12-28T13:15:01.495Z,2.88
2022-12-28T13:17:30.718Z,2.20
2022-12-28T13:20:08.885Z,2.70
2022-12-28T13:22:36.536Z,2.13
2022-12-28T13:25:04.527Z,2.28
2022-12-28T13:27:35.913Z,2.03
2022-12-28T13:30:04.631Z,2.00
2022-12-28T13:32:38.260Z,2.75
2022-12-28T13:35:22.686Z,2.42
2022-12-28T13:38:09.862Z,1.90
2022-12-28T13:40:39.941Z,1.73
2022-12-28T13:44:01.477Z,2.22
2022-12-28T13:46:30.617Z,1.77
2022-12-28T13:48:59.517Z,2.30
2022-12-28T13:51:28.129Z,2.72
2022-12-28T13:54:00.073Z,1.50
2022-12-28T13:56:29.137Z,2.20
2022-12-28T13:59:03.598Z,2.42
2022-12-28T14:01:40.046Z,2.05
2022-12-28T14:04:51.029Z,1.80
2022-12-28T14:07:01.935Z,1.77
2022-12-28T14:09:29.991Z,1.85
2022-12-28T14:11:57.884Z,2.25
2022-12-28T14:14:25.603Z,1.80
2022-12-28T14:16:53.393Z,1.70
2022-12-28T14:19:21.064Z,1.75
2022-12-28T14:21:48.746Z,1.52
2022-12-28T14:24:17.575Z,1.65
2022-12-28T14:26:59.377Z,2.10
2022-12-28T14:29:29.675Z,4.13
2022-12-28T14:32:08.362Z,2.67
2022-12-28T14:34:38.912Z,1.83
2022-12-28T14:37:09.893Z,2.35
2022-12-28T14:39:44.501Z,1.75
2022-12-28T14:42:24.771Z,2.60
2022-12-28T14:44:56.200Z,5.55
2022-12-28T14:47:47.418Z,4.85
2022-12-28T14:50:17.628Z,3.80
2022-12-28T14:52:49.689Z,3.15
2022-12-28T14:55:49.471Z,2.83
2022-12-28T14:58:32.996Z,2.25
2022-12-28T15:01:06.044Z,2.60
2022-12-28T15:03:55.323Z,2.63
2022-12-28T15:06:28.717Z,2.42
2022-12-28T15:08:58.996Z,2.45
2022-12-28T15:11:29.620Z,2.65
2022-12-28T15:13:57.850Z,2.45
2022-12-28T15:16:25.579Z,2.53
2022-12-28T15:18:53.413Z,2.50
2022-12-28T15:21:23.472Z,3.22
2022-12-28T15:23:52.834Z,2.63
2022-12-28T15:26:23.470Z,2.83
2022-12-28T15:28:51.737Z,3.00
2022-12-28T15:31:20.963Z,3.10
2022-12-28T15:33:49.012Z,2.78
2022-12-28T15:36:20.948Z,2.72
2022-12-28T15:38:49.476Z,2.75
2022-12-28T15:41:37.527Z,3.05
2022-12-28T15:44:05.840Z,3.03
2022-12-28T15:46:33.821Z,3.22
2022-12-28T15:49:06.154Z,3.70
2022-12-28T15:51:34.176Z,3.53
2022-12-28T15:54:01.948Z,3.10
2022-12-28T15:56:33.214Z,3.58
2022-12-28T15:59:04.562Z,3.83
2022-12-28T16:01:33.635Z,3.50
2022-12-28T16:04:03.041Z,3.63
2022-12-28T16:06:35.919Z,4.05
2022-12-28T16:09:06.929Z,3.58
2022-12-28T16:11:34.548Z,3.40
2022-12-28T16:14:06.052Z,4.10
2022-12-28T16:16:37.608Z,3.47
2022-12-28T16:19:07.016Z,4.18
2022-12-28T16:21:36.138Z,4.60
2022-12-28T16:24:05.186Z,4.43
2022-12-28T16:26:32.900Z,4.30
2022-12-28T16:29:01.393Z,4.55
2022-12-28T16:35:59.981Z,4.25
2022-12-28T16:38:29.040Z,4.30
2022-12-28T16:40:57.360Z,4.57
2022-12-28T16:43:25.000Z,4.78
2022-12-28T16:45:52.700Z,5.15
2022-12-28T16:48:20.896Z,5.13
2022-12-28T16:50:58.532Z,5.10
2022-12-28T16:53:27.054Z,4.30
2022-12-28T16:55:55.358Z,4.95
2022-12-28T16:58:23.015Z,4.72
2022-12-28T17:00:50.607Z,4.60
2022-12-28T17:03:18.376Z,5.22
2022-12-28T17:05:50.366Z,5.47
2022-12-28T17:08:18.927Z,4.72
2022-12-28T17:10:46.612Z,4.53
2022-12-28T17:13:15.493Z,5.28
2022-12-28T17:15:43.690Z,4.65
2022-12-28T17:18:12.455Z,4.93
2022-12-28T17:20:41.013Z,4.93
2022-12-28T17:23:09.352Z,4.47
2022-12-28T17:25:37.028Z,4.88
2022-12-28T17:28:05.536Z,4.57
2022-12-28T17:30:34.883Z,5.30
2022-12-28T17:33:02.562Z,5.00
2022-12-28T17:35:30.257Z,4.28
2022-12-28T17:37:58.342Z,5.15
2022-12-28T17:40:26.483Z,4.97
2022-12-28T17:42:54.289Z,5.05
2022-12-28T17:45:22.115Z,5.57
2022-12-28T17:47:49.901Z,5.10
2022-12-28T17:50:18.136Z,6.10
2022-12-28T17:52:46.008Z,7.35
2022-12-28T17:55:13.581Z,5.25
2022-12-28T17:57:41.224Z,6.03
2022-12-28T18:00:10.100Z,6.75
2022-12-28T18:02:40.582Z,6.65
2022-12-28T18:05:08.903Z,6.10
2022-12-28T18:07:36.491Z,6.40
2022-12-28T18:10:04.638Z,6.00
2022-12-28T18:12:32.248Z,5.43
2022-12-28T18:14:59.986Z,5.20
2022-12-28T18:17:27.881Z,4.85
2022-12-28T18:19:55.986Z,4.75
2022-12-28T18:22:23.805Z,6.40
2022-12-28T18:24:53.481Z,4.85
2022-12-28T18:27:21.260Z,5.30
2022-12-28T18:29:48.897Z,6.43
2022-12-28T18:32:16.613Z,7.55
2022-12-28T18:34:44.235Z,4.70
2022-12-28T18:37:11.838Z,4.07
2022-12-28T18:39:39.793Z,4.65
2022-12-28T18:42:07.390Z,4.78
2022-12-28T18:44:35.060Z,4.45
2022-12-28T18:47:02.654Z,4.30
2022-12-28T18:49:30.686Z,4.60
2022-12-28T18:51:58.270Z,4.13
2022-12-28T18:54:25.895Z,3.97
2022-12-28T18:56:53.601Z,3.72
2022-12-28T18:59:22.080Z,3.95
2022-12-28T19:02:07.448Z,3.95
2022-12-28T19:04:36.129Z,4.00
2022-12-28T19:07:04.240Z,3.88
2022-12-28T19:09:32.363Z,4.00
2022-12-28T19:12:00.170Z,3.58
2022-12-28T19:14:27.945Z,3.80
2022-12-28T19:16:55.533Z,3.50
2022-12-28T19:19:23.221Z,3.40
2022-12-28T19:21:58.250Z,3.92
2022-12-28T19:24:26.516Z,3.47
2022-12-28T19:26:54.186Z,3.90
2022-12-28T19:29:21.886Z,4.10
2022-12-28T19:31:49.610Z,4.10
2022-12-28T19:34:17.587Z,3.83
2022-12-28T19:36:45.408Z,3.67
2022-12-28T19:39:13.128Z,4.18
2022-12-28T19:41:40.978Z,3.72
2022-12-28T19:44:08.763Z,6.07
2022-12-28T19:46:36.582Z,4.72
2022-12-28T19:49:04.835Z,4.60
2022-12-28T19:51:33.636Z,5.00
2022-12-28T19:54:02.234Z,3.95
2022-12-28T19:56:30.719Z,4.40
2022-12-28T19:59:05.916Z,3.50
2022-12-28T20:01:37.017Z,4.78
2022-12-28T20:04:12.961Z,3.92
2022-12-28T20:06:44.008Z,3.78
2022-12-28T20:09:13.379Z,4.45
2022-12-28T20:11:41.898Z,5.10
2022-12-28T20:14:13.792Z,5.32
2022-12-28T20:16:42.895Z,4.05
2022-12-28T20:19:12.144Z,5.00
2022-12-28T20:21:41.914Z,4.72
2022-12-28T20:24:12.792Z,4.88
2022-12-28T20:26:40.896Z,5.75
2022-12-28T20:29:08.682Z,5.55
2022-12-28T20:31:36.431Z,5.28
2022-12-28T20:34:04.070Z,4.60
2022-12-28T20:36:34.069Z,4.57
2022-12-28T20:39:02.909Z,4.68
2022-12-28T20:41:51.394Z,4.85
2022-12-28T20:44:26.052Z,4.70
2022-12-28T20:46:55.447Z,4.23
2022-12-28T20:49:24.709Z,3.92
2022-12-28T20:51:53.760Z,3.90
2022-12-28T20:54:22.204Z,3.78
2022-12-28T20:56:55.209Z,3.78
2022-12-28T20:59:25.182Z,3.72
2022-12-28T21:01:53.565Z,3.72
2022-12-28T21:04:23.969Z,3.42
2022-12-28T21:06:53.683Z,3.55
2022-12-28T21:09:21.823Z,3.53
2022-12-28T21:11:49.775Z,3.45
2022-12-28T21:14:17.460Z,3.33
2022-12-28T21:16:45.918Z,3.30
2022-12-28T21:19:13.734Z,3.67
2022-12-28T21:21:41.701Z,2.90
2022-12-28T21:24:09.635Z,3.00
2022-12-28T21:26:37.328Z,3.00
2022-12-28T21:29:05.118Z,2.92
2022-12-28T21:31:32.857Z,3.67
2022-12-28T21:34:00.579Z,3.00
2022-12-28T21:36:28.239Z,2.83
2022-12-28T21:38:55.911Z,2.78
2022-12-28T21:41:42.593Z,2.70
2022-12-28T21:44:13.449Z,2.22
2022-12-28T21:46:41.653Z,2.50
2022-12-28T21:49:09.764Z,2.47
2022-12-28T21:51:39.347Z,2.50
2022-12-28T21:54:21.688Z,2.17
2022-12-28T21:56:52.902Z,2.22
2022-12-28T21:59:22.656Z,1.83
2022-12-28T22:02:10.002Z,2.00
2022-12-28T22:05:02.271Z,1.80
2022-12-28T22:07:34.795Z,2.10
2022-12-28T22:10:21.218Z,1.75
2022-12-28T22:12:48.921Z,1.80
2022-12-28T22:15:41.068Z,1.67
2022-12-28T22:18:30.081Z,1.70
2022-12-28T22:21:03.648Z,1.40
2022-12-28T22:23:34.809Z,1.67
2022-12-28T22:26:03.519Z,1.80
2022-12-28T22:28:31.980Z,1.60
2022-12-28T22:31:07.644Z,1.60
2022-12-28T22:36:15.236Z,1.67
2022-12-28T22:38:43.700Z,1.77
2022-12-28T22:41:11.351Z,1.40
2022-12-28T22:43:39.047Z,1.52
2022-12-28T22:46:12.174Z,1.60
2022-12-28T22:48:39.953Z,1.40
2022-12-28T22:51:12.279Z,1.17
2022-12-28T22:53:41.443Z,1.75
2022-12-28T22:56:20.696Z,1.55
2022-12-28T22:58:48.757Z,2.35
2022-12-28T23:01:19.658Z,2.15
2022-12-28T23:03:48.692Z,2.00
2022-12-28T23:06:19.850Z,2.42
2022-12-28T23:08:48.138Z,1.80
2022-12-28T23:11:36.860Z,1.95
2022-12-28T23:14:41.269Z,1.88
2022-12-28T23:17:16.248Z,1.40
2022-12-28T23:20:04.308Z,1.20
2022-12-28T23:22:53.160Z,1.27
2022-12-28T23:25:41.950Z,1.20
2022-12-28T23:28:15.547Z,1.13
2022-12-28T23:30:47.500Z,0.70
2022-12-28T23:33:16.373Z,0.90
2022-12-28T23:35:44.759Z,0.90
2022-12-28T23:38:12.552Z,0.80
2022-12-28T23:40:41.376Z,0.70
2022-12-28T23:43:09.194Z,0.90
2022-12-28T23:45:37.436Z,1.02
2022-12-28T23:48:05.661Z,1.05
2022-12-28T23:50:33.370Z,1.00
2022-12-28T23:53:01.050Z,1.02
2022-12-28T23:55:28.756Z,0.95
2022-12-28T23:57:56.387Z,1.10
